createdAt,value
2018-10-07T00:00:43.241Z,7.23
2018-10-07T00:03:11.860Z,6.57
2018-10-07T00:05:40.537Z,6.27
2018-10-07T00:08:09.167Z,6.30
2018-10-07T00:10:37.756Z,7.10
2018-10-07T00:13:06.452Z,5.93
2018-10-07T00:15:35.055Z,5.70
2018-10-07T00:18:04.153Z,6.40
2018-10-07T00:20:32.764Z,6.60
2018-10-07T00:23:01.356Z,6.27
2018-10-07T00:25:30.006Z,6.80
2018-10-07T00:27:58.653Z,6.40
2018-10-07T00:30:27.268Z,6.60
2018-10-07T00:32:55.859Z,6.07
2018-10-07T00:35:24.648Z,7.70
2018-10-07T00:37:53.217Z,6.00
2018-10-07T00:40:21.785Z,6.00
2018-10-07T00:42:50.419Z,5.40
2018-10-07T00:45:19.652Z,6.00
2018-10-07T00:47:48.232Z,6.03
2018-10-07T00:50:16.951Z,5.80
2018-10-07T00:52:46.462Z,5.80
2018-10-07T00:55:16.154Z,6.20
2018-10-07T00:57:47.077Z,6.03
2018-10-07T01:00:16.266Z,5.70
2018-10-07T01:02:46.883Z,6.43
2018-10-07T01:05:16.630Z,5.87
2018-10-07T01:07:47.650Z,5.40
2018-10-07T01:10:16.319Z,6.90
2018-10-07T01:12:44.944Z,5.60
2018-10-07T01:15:13.580Z,6.63
2018-10-07T01:17:42.298Z,6.43
2018-10-07T01:20:10.893Z,5.87
2018-10-07T01:22:39.643Z,5.50
2018-10-07T01:25:08.215Z,6.67
2018-10-07T01:27:36.827Z,6.53
2018-10-07T01:30:05.899Z,6.00
2018-10-07T01:32:34.468Z,6.30
2018-10-07T01:35:03.075Z,6.27
2018-10-07T01:37:31.684Z,6.23
2018-10-07T01:40:00.264Z,6.00
2018-10-07T01:42:28.840Z,6.20
2018-10-07T01:44:57.592Z,6.37
2018-10-07T01:47:26.186Z,6.13
2018-10-07T01:49:54.777Z,6.20
2018-10-07T01:52:23.453Z,6.13
2018-10-07T01:54:52.040Z,7.23
2018-10-07T01:57:20.686Z,6.10
2018-10-07T01:59:49.336Z,6.70
2018-10-07T02:02:17.925Z,6.50
2018-10-07T02:04:46.536Z,7.23
2018-10-07T02:07:15.224Z,5.60
2018-10-07T02:09:43.809Z,6.47
2018-10-07T02:12:12.392Z,7.20
2018-10-07T02:14:41.079Z,6.67
2018-10-07T02:17:09.679Z,7.10
2018-10-07T02:19:38.292Z,7.00
2018-10-07T02:22:06.956Z,6.40
2018-10-07T02:24:35.539Z,7.17
2018-10-07T02:27:04.152Z,5.73
2018-10-07T02:29:32.852Z,6.33
2018-10-07T02:32:01.457Z,7.27
2018-10-07T02:34:30.057Z,5.87
2018-10-07T02:36:59.167Z,5.20
2018-10-07T02:39:27.744Z,6.27
2018-10-07T02:41:56.336Z,6.43
2018-10-07T02:44:24.939Z,5.60
2018-10-07T02:46:53.507Z,7.00
2018-10-07T02:49:22.091Z,7.10
2018-10-07T02:51:50.786Z,7.20
2018-10-07T02:54:19.391Z,7.30
2018-10-07T02:56:47.966Z,7.13
2018-10-07T02:59:17.527Z,7.77
2018-10-07T03:01:46.117Z,7.57
2018-10-07T03:04:14.732Z,6.30
2018-10-07T03:06:43.594Z,6.73
2018-10-07T03:09:12.187Z,7.43
2018-10-07T03:11:40.873Z,8.00
2018-10-07T03:14:09.488Z,7.20
2018-10-07T03:16:38.244Z,7.23
2018-10-07T03:19:07.013Z,7.90
2018-10-07T03:21:35.980Z,7.30
2018-10-07T03:24:04.545Z,7.47
2018-10-07T03:26:33.160Z,8.13
2018-10-07T03:29:01.760Z,6.23
2018-10-07T03:31:30.349Z,7.00
2018-10-07T03:33:59.568Z,7.77
2018-10-07T03:36:28.267Z,7.77
2018-10-07T03:38:56.855Z,6.80
2018-10-07T03:41:25.512Z,6.20
2018-10-07T03:43:54.267Z,7.73
2018-10-07T03:46:22.836Z,8.00
2018-10-07T03:48:51.404Z,7.53
2018-10-07T03:51:20.035Z,7.27
2018-10-07T03:53:48.623Z,7.17
2018-10-07T03:56:17.215Z,7.33
2018-10-07T03:58:45.812Z,7.40
2018-10-07T04:01:14.452Z,7.90
2018-10-07T04:03:43.423Z,7.50
2018-10-07T04:06:12.060Z,7.80
2018-10-07T04:08:40.636Z,7.40
2018-10-07T04:11:09.259Z,6.10
2018-10-07T04:13:38.076Z,7.73
2018-10-07T04:16:06.712Z,7.77
2018-10-07T04:18:35.272Z,7.80
2018-10-07T04:21:04.016Z,7.70
2018-10-07T04:23:32.574Z,7.30
2018-10-07T04:26:01.236Z,6.80
2018-10-07T04:28:29.844Z,7.30
2018-10-07T04:30:58.428Z,8.37
2018-10-07T04:33:27.020Z,7.70
2018-10-07T04:35:55.911Z,7.77
2018-10-07T04:38:24.476Z,7.33
2018-10-07T04:40:53.043Z,6.80
2018-10-07T04:43:22.372Z,7.47
2018-10-07T04:45:50.952Z,7.40
2018-10-07T04:48:19.519Z,7.70
2018-10-07T04:50:48.588Z,7.33
2018-10-07T04:53:17.168Z,7.40
2018-10-07T04:55:45.749Z,8.33
2018-10-07T04:58:14.688Z,8.40
2018-10-07T05:00:43.907Z,7.57
2018-10-07T05:03:12.479Z,7.50
2018-10-07T05:05:41.236Z,7.40
2018-10-07T05:08:09.830Z,7.90
2018-10-07T05:10:48.807Z,9.20
2018-10-07T05:13:24.636Z,7.87
2018-10-07T05:16:03.683Z,7.83
2018-10-07T05:18:32.400Z,7.30
2018-10-07T05:21:01.061Z,8.27
2018-10-07T05:23:29.752Z,8.57
2018-10-07T05:25:58.338Z,7.30
2018-10-07T05:28:26.932Z,6.73
2018-10-07T05:30:55.739Z,8.23
2018-10-07T05:33:24.588Z,7.63
2018-10-07T05:35:53.106Z,7.67
2018-10-07T05:38:21.815Z,6.70
2018-10-07T05:40:50.372Z,7.67
2018-10-07T05:43:19.094Z,7.23
2018-10-07T05:45:47.704Z,6.70
2018-10-07T05:48:16.284Z,8.30
2018-10-07T05:50:44.938Z,7.73
2018-10-07T05:53:13.759Z,7.73
2018-10-07T05:55:42.437Z,7.73
2018-10-07T05:58:11.148Z,6.87
2018-10-07T06:00:40.106Z,7.90
2018-10-07T06:03:19.642Z,7.00
2018-10-07T06:05:48.387Z,7.20
2018-10-07T06:08:18.762Z,7.33
2018-10-07T06:10:47.372Z,6.63
2018-10-07T06:13:16.316Z,7.20
2018-10-07T06:15:45.079Z,8.23
2018-10-07T06:18:13.684Z,6.20
2018-10-07T06:20:42.429Z,6.67
2018-10-07T06:23:11.048Z,7.90
2018-10-07T06:25:39.644Z,7.13
2018-10-07T06:28:08.645Z,7.13
2018-10-07T06:30:37.239Z,8.27
2018-10-07T06:33:05.841Z,7.03
2018-10-07T06:35:34.467Z,8.30
2018-10-07T06:38:03.069Z,7.67
2018-10-07T06:40:31.649Z,6.47
2018-10-07T06:43:00.373Z,7.33
2018-10-07T06:45:28.971Z,7.07
2018-10-07T06:47:57.632Z,8.40
2018-10-07T06:50:26.227Z,7.57
2018-10-07T06:52:54.796Z,8.93
2018-10-07T06:55:23.364Z,8.13
2018-10-07T06:57:52.055Z,8.40
2018-10-07T07:00:20.629Z,7.43
2018-10-07T07:02:49.232Z,7.20
2018-10-07T07:05:18.071Z,8.63
2018-10-07T07:07:46.645Z,7.87
2018-10-07T07:10:15.211Z,8.07
2018-10-07T07:12:44.024Z,7.47
2018-10-07T07:15:12.592Z,6.20
2018-10-07T07:17:41.169Z,6.93
2018-10-07T07:20:09.810Z,6.23
2018-10-07T07:22:38.404Z,6.83
2018-10-07T07:25:07.039Z,6.83
2018-10-07T07:27:35.743Z,5.90
2018-10-07T07:30:05.134Z,6.30
2018-10-07T07:32:33.703Z,5.83
2018-10-07T07:35:02.339Z,6.00
2018-10-07T07:37:31.051Z,6.10
2018-10-07T07:39:59.619Z,6.97
2018-10-07T07:42:28.466Z,7.00
2018-10-07T07:44:56.988Z,7.40
2018-10-07T07:47:25.547Z,6.00
2018-10-07T07:49:54.155Z,5.87
2018-10-07T07:52:22.711Z,5.87
2018-10-07T07:54:51.387Z,6.30
2018-10-07T07:57:20.012Z,6.13
2018-10-07T07:59:48.577Z,5.90
2018-10-07T08:02:17.193Z,6.80
2018-10-07T08:04:45.856Z,6.53
2018-10-07T08:07:14.413Z,6.40
2018-10-07T08:09:42.992Z,5.70
2018-10-07T08:12:11.606Z,6.10
2018-10-07T08:14:40.176Z,6.37
2018-10-07T08:17:08.751Z,6.40
2018-10-07T08:19:37.415Z,4.57
2018-10-07T08:22:06.131Z,4.10
2018-10-07T08:24:34.740Z,3.80
2018-10-07T08:27:03.485Z,4.43
2018-10-07T08:29:32.104Z,3.90
2018-10-07T08:32:00.659Z,4.63
2018-10-07T08:34:29.358Z,4.40
2018-10-07T08:36:57.926Z,3.60
2018-10-07T08:39:26.528Z,3.80
2018-10-07T08:41:55.735Z,3.73
2018-10-07T08:44:24.335Z,4.13
2018-10-07T08:46:52.921Z,3.97
2018-10-07T08:49:22.072Z,3.20
2018-10-07T08:51:50.660Z,4.50
2018-10-07T08:54:19.250Z,3.70
2018-10-07T08:56:47.940Z,4.00
2018-10-07T08:59:16.512Z,4.43
2018-10-07T09:01:45.100Z,3.27
2018-10-07T09:04:14.066Z,3.80
2018-10-07T09:06:42.760Z,4.00
2018-10-07T09:09:12.051Z,3.80
2018-10-07T09:11:41.108Z,3.90
2018-10-07T09:14:10.146Z,3.37
2018-10-07T09:16:38.744Z,4.40
2018-10-07T09:19:07.472Z,4.00
2018-10-07T09:21:36.243Z,3.20
2018-10-07T09:24:04.819Z,4.30
2018-10-07T09:26:33.552Z,4.00
2018-10-07T09:29:02.215Z,4.20
2018-10-07T09:31:31.420Z,3.33
2018-10-07T09:34:00.453Z,3.43
2018-10-07T09:36:29.027Z,4.43
2018-10-07T09:38:57.609Z,3.57
2018-10-07T09:41:26.240Z,3.73
2018-10-07T09:43:54.827Z,4.13
2018-10-07T09:46:23.521Z,4.50
2018-10-07T09:48:52.568Z,4.57
2018-10-07T09:51:21.179Z,3.70
2018-10-07T09:53:49.809Z,3.73
2018-10-07T09:56:18.614Z,3.47
2018-10-07T09:58:47.230Z,3.27
2018-10-07T10:01:15.914Z,3.57
2018-10-07T10:03:44.551Z,3.80
2018-10-07T10:06:13.185Z,3.30
2018-10-07T10:08:41.733Z,3.50
2018-10-07T10:11:10.482Z,3.13
2018-10-07T10:13:38.980Z,3.63
2018-10-07T10:16:07.587Z,2.73
2018-10-07T10:18:44.163Z,3.27
2018-10-07T10:21:26.045Z,3.47
2018-10-07T10:24:14.763Z,3.53
2018-10-07T10:27:05.048Z,3.53
2018-10-07T10:29:37.496Z,3.40
2018-10-07T10:32:11.284Z,3.00
2018-10-07T10:34:52.980Z,3.90
2018-10-07T10:37:28.996Z,3.47
2018-10-07T10:40:00.588Z,2.90
2018-10-07T10:44:06.900Z,3.90
2018-10-07T10:46:41.889Z,3.80
2018-10-07T10:51:21.494Z,2.70
2018-10-07T10:53:53.352Z,3.17
2018-10-07T10:56:26.605Z,3.50
2018-10-07T11:00:10.412Z,3.77
2018-10-07T11:02:46.192Z,4.03
2018-10-07T11:05:26.024Z,3.50
2018-10-07T11:08:00.773Z,2.70
2018-10-07T11:11:42.070Z,3.13
2018-10-07T11:14:33.671Z,3.37
2018-10-07T11:18:13.713Z,3.20
2018-10-07T11:22:57.704Z,3.23
2018-10-07T11:25:38.933Z,2.27
2018-10-07T11:28:19.809Z,3.13
2018-10-07T11:30:59.769Z,3.23
2018-10-07T11:35:39.341Z,2.77
2018-10-07T11:38:15.890Z,2.70
2018-10-07T11:41:07.513Z,3.53
2018-10-07T11:43:44.995Z,2.23
2018-10-07T11:46:29.046Z,2.67
2018-10-07T11:49:04.689Z,2.63
2018-10-07T11:51:38.297Z,2.77
2018-10-07T11:54:12.120Z,2.50
2018-10-07T11:56:41.055Z,3.57
2018-10-07T11:59:09.748Z,2.53
2018-10-07T12:01:38.395Z,2.73
2018-10-07T12:04:06.970Z,3.27
2018-10-07T12:06:35.576Z,2.90
2018-10-07T12:09:05.399Z,3.57
2018-10-07T12:11:33.967Z,3.40
2018-10-07T12:14:02.557Z,2.60
2018-10-07T12:16:31.309Z,3.20
2018-10-07T12:18:59.802Z,2.77
2018-10-07T12:21:28.374Z,3.10
2018-10-07T12:23:57.047Z,3.23
2018-10-07T12:26:25.611Z,3.47
2018-10-07T12:28:54.233Z,3.70
2018-10-07T12:31:22.928Z,3.50
2018-10-07T12:33:51.516Z,3.50
2018-10-07T12:36:20.097Z,2.80
2018-10-07T12:38:48.791Z,3.00
2018-10-07T12:41:17.360Z,3.60
2018-10-07T12:43:45.952Z,3.13
2018-10-07T12:46:14.696Z,3.40
2018-10-07T12:48:43.272Z,3.20
2018-10-07T12:51:11.842Z,3.10
2018-10-07T12:53:40.627Z,3.73
2018-10-07T12:56:09.396Z,3.13
2018-10-07T12:58:38.004Z,3.23
2018-10-07T13:01:07.347Z,3.10
2018-10-07T13:03:35.928Z,3.70
2018-10-07T13:06:04.528Z,3.70
2018-10-07T13:08:33.219Z,3.40
2018-10-07T13:11:01.803Z,4.63
2018-10-07T13:13:30.392Z,4.50
2018-10-07T13:15:59.079Z,3.67
2018-10-07T13:18:27.624Z,3.60
2018-10-07T13:20:56.192Z,4.13
2018-10-07T13:23:24.892Z,4.00
2018-10-07T13:25:53.816Z,3.40
2018-10-07T13:28:22.394Z,3.53
2018-10-07T13:30:51.097Z,3.67
2018-10-07T13:33:20.203Z,4.47
2018-10-07T13:35:49.270Z,3.60
2018-10-07T13:38:18.398Z,4.57
2018-10-07T13:40:46.975Z,4.27
2018-10-07T13:43:15.976Z,3.80
2018-10-07T13:45:44.671Z,4.30
2018-10-07T13:48:13.254Z,3.57
2018-10-07T13:50:41.883Z,4.57
2018-10-07T13:53:10.560Z,4.53
2018-10-07T13:55:39.231Z,3.60
2018-10-07T13:58:09.830Z,4.90
2018-10-07T14:00:39.415Z,4.30
2018-10-07T14:03:08.976Z,4.70
2018-10-07T14:05:39.763Z,4.33
2018-10-07T14:08:09.540Z,4.20
2018-10-07T14:10:40.773Z,4.80
2018-10-07T14:13:09.956Z,4.80
2018-10-07T14:15:39.303Z,5.17
2018-10-07T14:18:09.039Z,4.90
2018-10-07T14:20:39.140Z,5.10
2018-10-07T14:23:09.401Z,4.60
2018-10-07T14:25:40.943Z,4.67
2018-10-07T14:28:10.652Z,4.40
2018-10-07T14:30:40.064Z,4.47
2018-10-07T14:33:10.551Z,5.17
2018-10-07T14:35:40.676Z,4.40
2018-10-07T14:38:09.303Z,5.20
2018-10-07T14:40:40.093Z,4.80
2018-10-07T14:43:10.091Z,5.77
2018-10-07T14:45:40.056Z,4.93
2018-10-07T14:48:10.074Z,4.73
2018-10-07T14:50:40.920Z,5.90
2018-10-07T14:53:12.878Z,5.60
2018-10-07T14:55:41.580Z,5.80
2018-10-07T14:58:10.167Z,6.30
2018-10-07T15:00:39.455Z,5.00
2018-10-07T15:03:09.383Z,5.20
2018-10-07T15:05:39.091Z,5.10
2018-10-07T15:08:09.191Z,4.40
2018-10-07T15:10:39.754Z,5.03
2018-10-07T15:13:10.327Z,5.10
2018-10-07T15:15:40.391Z,5.60
2018-10-07T15:18:10.739Z,4.53
2018-10-07T15:20:40.432Z,5.60
2018-10-07T15:23:09.003Z,6.03
2018-10-07T15:25:39.471Z,6.50
2018-10-07T15:28:08.916Z,5.63
2018-10-07T15:30:38.423Z,6.10
2018-10-07T15:33:08.024Z,5.97
2018-10-07T15:35:37.590Z,6.60
2018-10-07T15:38:07.497Z,6.30
2018-10-07T15:40:37.898Z,6.10
2018-10-07T15:43:08.076Z,6.03
2018-10-07T15:45:37.840Z,7.30
2018-10-07T15:48:08.977Z,6.77
2018-10-07T15:50:38.991Z,6.40
2018-10-07T15:53:09.103Z,6.43
2018-10-07T15:55:39.576Z,7.00
2018-10-07T15:58:09.324Z,7.07
2018-10-07T16:00:38.534Z,6.77
2018-10-07T16:03:08.553Z,6.43
2018-10-07T16:05:37.199Z,7.40
2018-10-07T16:08:08.226Z,8.73
2018-10-07T16:10:37.100Z,8.93
2018-10-07T16:13:05.964Z,7.83
2018-10-07T16:15:35.111Z,7.50
2018-10-07T16:18:04.551Z,7.00
2018-10-07T16:20:34.446Z,7.07
2018-10-07T16:23:04.315Z,7.30
2018-10-07T16:25:34.275Z,7.60
2018-10-07T16:28:04.116Z,6.77
2018-10-07T16:30:34.368Z,7.90
2018-10-07T16:33:02.959Z,6.60
2018-10-07T16:35:31.543Z,7.57
2018-10-07T16:38:00.220Z,8.20
2018-10-07T16:40:28.853Z,7.43
2018-10-07T16:42:59.251Z,8.07
2018-10-07T16:45:29.267Z,6.93
2018-10-07T16:47:58.707Z,7.23
2018-10-07T16:50:27.808Z,7.63
2018-10-07T16:52:57.650Z,7.10
2018-10-07T16:55:28.050Z,7.23
2018-10-07T16:57:58.051Z,6.53
2018-10-07T17:00:28.308Z,7.00
2018-10-07T17:02:58.861Z,6.43
2018-10-07T17:05:27.987Z,6.53
2018-10-07T17:07:57.659Z,6.93
2018-10-07T17:10:27.797Z,7.07
2018-10-07T17:12:57.942Z,7.40
2018-10-07T17:15:27.249Z,8.10
2018-10-07T17:17:56.966Z,9.13
2018-10-07T17:20:26.828Z,11.07
2018-10-07T17:22:55.764Z,11.73
2018-10-07T17:25:26.055Z,11.30
2018-10-07T17:27:55.636Z,11.50
2018-10-07T17:30:24.620Z,12.07
2018-10-07T17:32:54.111Z,12.43
2018-10-07T17:35:22.680Z,14.13
2018-10-07T17:37:51.361Z,14.03
2018-10-07T17:40:19.971Z,14.50
2018-10-07T17:42:48.625Z,14.80
2018-10-07T17:45:17.168Z,17.43
2018-10-07T17:47:45.808Z,16.57
2018-10-07T17:50:14.384Z,16.20
2018-10-07T17:52:42.972Z,20.00
2018-10-07T17:55:11.672Z,21.30
2018-10-07T17:57:40.454Z,17.13
2018-10-07T18:00:09.101Z,17.07
2018-10-07T18:02:38.248Z,15.30
2018-10-07T18:05:07.968Z,16.80
2018-10-07T18:07:37.688Z,15.87
2018-10-07T18:10:07.275Z,18.73
2018-10-07T18:12:36.477Z,14.50
2018-10-07T18:15:05.427Z,14.77
2018-10-07T18:17:34.403Z,15.10
2018-10-07T18:20:04.128Z,14.53
2018-10-07T18:22:35.624Z,17.50
2018-10-07T18:25:05.063Z,18.07
2018-10-07T18:27:34.195Z,16.30
2018-10-07T18:30:04.289Z,14.20
2018-10-07T18:32:34.464Z,15.20
2018-10-07T18:35:03.379Z,14.10
2018-10-07T18:37:31.968Z,15.37
2018-10-07T18:40:03.238Z,14.77
2018-10-07T18:42:31.899Z,14.93
2018-10-07T18:45:03.315Z,14.30
2018-10-07T18:47:34.434Z,14.97
2018-10-07T18:50:05.606Z,14.83
2018-10-07T18:52:35.920Z,14.47
2018-10-07T18:55:08.154Z,14.03
2018-10-07T18:57:38.203Z,16.03
2018-10-07T19:00:09.992Z,16.10
2018-10-07T19:02:38.753Z,16.07
2018-10-07T19:05:10.932Z,13.47
2018-10-07T19:07:40.982Z,12.77
2018-10-07T19:10:10.632Z,13.00
2018-10-07T19:12:40.188Z,14.73
2018-10-07T19:15:09.876Z,13.40
2018-10-07T19:17:39.440Z,14.10
2018-10-07T19:20:09.993Z,14.23
2018-10-07T19:22:39.914Z,14.10
2018-10-07T19:25:11.893Z,15.30
2018-10-07T19:27:43.477Z,14.87
2018-10-07T19:30:12.320Z,13.33
2018-10-07T19:32:41.187Z,14.37
2018-10-07T19:35:10.912Z,12.97
2018-10-07T19:37:41.603Z,14.97
2018-10-07T19:40:12.680Z,13.50
2018-10-07T19:42:46.218Z,12.53
2018-10-07T19:45:16.324Z,14.10
2018-10-07T19:47:47.593Z,12.50
2018-10-07T19:50:18.430Z,12.47
2018-10-07T19:52:49.108Z,13.50
2018-10-07T19:55:20.961Z,11.77
2018-10-07T19:57:52.135Z,13.27
2018-10-07T20:00:24.126Z,12.60
2018-10-07T20:02:54.168Z,12.60
2018-10-07T20:05:22.808Z,14.13
2018-10-07T20:07:51.424Z,13.60
2018-10-07T20:10:20.028Z,13.93
2018-10-07T20:12:48.647Z,13.57
2018-10-07T20:15:17.236Z,13.60
2018-10-07T20:17:45.855Z,12.40
2018-10-07T20:20:14.472Z,14.73
2018-10-07T20:22:43.068Z,13.70
2018-10-07T20:25:11.653Z,13.20
2018-10-07T20:27:40.632Z,12.60
2018-10-07T20:30:09.193Z,12.13
2018-10-07T20:32:39.962Z,15.20
2018-10-07T20:35:08.662Z,14.93
2018-10-07T20:37:37.288Z,13.10
2018-10-07T20:40:06.596Z,13.60
2018-10-07T20:42:35.148Z,14.40
2018-10-07T20:45:03.732Z,14.10
2018-10-07T20:47:32.545Z,11.73
2018-10-07T20:50:01.151Z,12.43
2018-10-07T20:52:29.930Z,12.80
2018-10-07T20:54:58.742Z,14.60
2018-10-07T20:57:27.528Z,13.30
2018-10-07T20:59:56.122Z,14.30
2018-10-07T21:02:24.822Z,14.00
2018-10-07T21:04:53.395Z,14.20
2018-10-07T21:07:22.113Z,14.57
2018-10-07T21:09:50.824Z,14.70
2018-10-07T21:12:19.462Z,14.43
2018-10-07T21:14:48.069Z,15.03
2018-10-07T21:17:16.700Z,14.27
2018-10-07T21:19:45.299Z,12.93
2018-10-07T21:22:13.888Z,14.40
2018-10-07T21:24:42.573Z,14.30
2018-10-07T21:27:11.684Z,14.57
2018-10-07T21:29:40.347Z,13.87
2018-10-07T21:32:09.168Z,15.10
2018-10-07T21:34:37.941Z,14.93
2018-10-07T21:37:07.092Z,15.30
2018-10-07T21:39:36.219Z,13.80
2018-10-07T21:42:04.944Z,14.27
2018-10-07T21:44:33.583Z,13.63
2018-10-07T21:47:02.280Z,14.60
2018-10-07T21:49:30.847Z,15.03
2018-10-07T21:51:59.451Z,15.33
2018-10-07T21:54:28.408Z,15.40
2018-10-07T21:56:57.125Z,14.53
2018-10-07T21:59:25.700Z,15.80
2018-10-07T22:01:54.480Z,14.87
2018-10-07T22:04:23.051Z,15.40
2018-10-07T22:06:51.801Z,15.30
2018-10-07T22:09:20.778Z,16.30
2018-10-07T22:11:49.355Z,15.20
2018-10-07T22:14:17.976Z,14.90
2018-10-07T22:16:46.705Z,13.57
2018-10-07T22:19:15.299Z,14.40
2018-10-07T22:21:43.904Z,13.70
2018-10-07T22:24:12.889Z,16.13
2018-10-07T22:26:41.620Z,14.83
2018-10-07T22:29:10.213Z,13.63
2018-10-07T22:31:38.968Z,14.37
2018-10-07T22:34:07.604Z,15.40
2018-10-07T22:36:36.640Z,16.23
2018-10-07T22:39:06.719Z,14.50
2018-10-07T22:41:35.443Z,15.50
2018-10-07T22:44:04.458Z,14.90
2018-10-07T22:46:33.163Z,14.40
2018-10-07T22:49:01.787Z,13.77
2018-10-07T22:51:30.346Z,15.90
2018-10-07T22:54:00.049Z,15.70
2018-10-07T22:56:28.681Z,15.20
2018-10-07T22:58:57.305Z,16.60
2018-10-07T23:01:26.000Z,15.43
2018-10-07T23:03:54.596Z,14.47
2018-10-07T23:06:23.217Z,15.13
2018-10-07T23:08:52.568Z,16.60
2018-10-07T23:11:21.159Z,15.50
2018-10-07T23:13:49.749Z,15.20
2018-10-07T23:16:18.527Z,14.23
2018-10-07T23:18:47.160Z,15.80
2018-10-07T23:21:15.756Z,15.73
2018-10-07T23:23:44.752Z,14.93
2018-10-07T23:26:13.816Z,17.20
2018-10-07T23:28:42.399Z,15.60
2018-10-07T23:31:11.019Z,15.27
2018-10-07T23:33:39.644Z,15.00
2018-10-07T23:36:08.250Z,12.67
2018-10-07T23:38:36.939Z,14.70
2018-10-07T23:41:05.621Z,15.57
2018-10-07T23:43:34.207Z,15.80
2018-10-07T23:46:03.214Z,14.70
2018-10-07T23:48:31.795Z,15.87
2018-10-07T23:51:00.391Z,14.23
2018-10-07T23:53:29.290Z,16.10
2018-10-07T23:55:57.916Z,15.40
2018-10-07T23:58:26.759Z,15.13
